createdAt,value
2023-03-24T00:03:01.599Z,2.47
2023-03-24T00:08:06.857Z,1.80
2023-03-24T00:13:10.199Z,2.40
2023-03-24T00:18:13.568Z,2.30
2023-03-24T00:23:18.309Z,2.67
2023-03-24T00:28:21.737Z,2.63
2023-03-24T00:33:25.439Z,2.83
2023-03-24T00:38:30.269Z,1.87
2023-03-24T00:43:34.025Z,2.50
2023-03-24T00:48:38.304Z,2.77
2023-03-24T00:53:43.738Z,2.63
2023-03-24T00:58:47.112Z,2.70
2023-03-24T01:03:51.060Z,2.47
2023-03-24T01:08:56.333Z,2.50
2023-03-24T01:13:59.581Z,2.60
2023-03-24T01:19:02.914Z,2.37
2023-03-24T01:24:08.417Z,2.60
2023-03-24T01:29:11.737Z,2.10
2023-03-24T01:34:14.900Z,2.13
2023-03-24T01:39:19.670Z,2.00
2023-03-24T01:44:32.836Z,2.13
2023-03-24T01:49:39.414Z,2.10
2023-03-24T01:54:47.135Z,2.60
2023-03-24T01:59:55.390Z,2.17
2023-03-24T02:05:24.237Z,1.73
2023-03-24T02:10:34.055Z,2.30
2023-03-24T02:15:43.885Z,2.17
2023-03-24T02:21:16.828Z,2.33
2023-03-24T02:26:52.983Z,1.83
2023-03-24T02:32:13.843Z,2.40
2023-03-24T02:37:43.153Z,2.37
2023-03-24T02:43:15.612Z,2.33
2023-03-24T02:48:25.472Z,2.43
2023-03-24T02:53:34.252Z,1.87
2023-03-24T02:59:05.905Z,2.13
2023-03-24T03:04:16.860Z,2.20
2023-03-24T03:09:23.077Z,2.43
2023-03-24T03:14:35.372Z,1.80
2023-03-24T03:19:43.583Z,1.80
2023-03-24T03:24:53.206Z,2.00
2023-03-24T03:30:02.863Z,2.70
2023-03-24T03:35:11.008Z,2.10
2023-03-24T03:40:18.939Z,2.00
2023-03-24T03:45:28.100Z,1.87
2023-03-24T03:50:32.414Z,1.87
2023-03-24T03:55:42.918Z,2.00
2023-03-24T04:00:47.876Z,1.70
2023-03-24T04:06:25.369Z,2.40
2023-03-24T04:11:55.005Z,2.80
2023-03-24T04:17:57.648Z,2.70
2023-03-24T04:23:40.041Z,3.07
2023-03-24T04:28:52.722Z,2.43
2023-03-24T04:34:03.792Z,3.17
2023-03-24T04:39:08.058Z,3.17
2023-03-24T04:44:22.646Z,3.87
2023-03-24T04:49:45.071Z,3.43
2023-03-24T04:54:48.974Z,3.57
2023-03-24T04:59:52.766Z,3.00
2023-03-24T05:04:58.749Z,3.27
2023-03-24T05:10:11.912Z,3.80
2023-03-24T05:15:24.832Z,6.90
2023-03-24T05:20:35.089Z,4.93
2023-03-24T05:25:49.368Z,2.40
2023-03-24T05:30:54.518Z,2.00
2023-03-24T05:36:13.689Z,2.40
2023-03-24T05:41:19.234Z,1.80
2023-03-24T05:46:24.587Z,2.10
2023-03-24T05:51:31.295Z,2.67
2023-03-24T05:56:40.618Z,2.50
2023-03-24T06:02:07.487Z,2.67
2023-03-24T06:07:26.713Z,2.23
2023-03-24T06:12:32.104Z,2.20
2023-03-24T06:17:38.545Z,2.60
2023-03-24T06:22:50.511Z,2.30
2023-03-24T06:28:04.294Z,2.60
2023-03-24T06:33:09.441Z,2.10
2023-03-24T06:38:14.888Z,2.10
2023-03-24T06:43:19.703Z,1.90
2023-03-24T06:48:23.111Z,2.00
2023-03-24T06:53:30.136Z,1.97
2023-03-24T06:58:34.022Z,1.73
2023-03-24T07:03:42.087Z,1.60
2023-03-24T07:09:07.381Z,1.60
2023-03-24T07:14:10.942Z,1.57
2023-03-24T07:19:14.270Z,1.13
2023-03-24T07:24:22.245Z,1.80
2023-03-24T07:29:35.191Z,1.70
2023-03-24T07:34:53.684Z,1.33
2023-03-24T07:39:58.749Z,1.50
2023-03-24T07:45:01.960Z,1.33
2023-03-24T07:50:10.146Z,1.83
2023-03-24T07:55:15.872Z,1.67
2023-03-24T08:00:33.795Z,1.60
2023-03-24T08:05:55.273Z,1.77
2023-03-24T08:11:08.072Z,1.80
2023-03-24T08:16:11.576Z,1.07
2023-03-24T08:21:14.920Z,1.00
2023-03-24T08:26:19.713Z,1.30
2023-03-24T08:31:23.076Z,1.00
2023-03-24T08:36:26.647Z,1.23
2023-03-24T08:41:35.246Z,0.83
2023-03-24T08:46:39.565Z,1.23
2023-03-24T08:51:43.170Z,1.10
2023-03-24T08:56:47.965Z,0.97
2023-03-24T09:01:51.328Z,0.87
2023-03-24T09:07:01.685Z,0.90
2023-03-24T09:12:08.054Z,0.80
2023-03-24T09:17:11.506Z,0.60
2023-03-24T09:22:14.731Z,0.70
2023-03-24T09:27:19.436Z,1.03
2023-03-24T09:32:22.693Z,1.03
2023-03-24T09:37:25.837Z,0.70
2023-03-24T09:42:35.434Z,0.83
2023-03-24T09:47:43.115Z,0.80
2023-03-24T09:52:49.856Z,0.90
2023-03-24T09:57:57.691Z,0.70
2023-03-24T10:03:03.902Z,0.60
2023-03-24T10:08:16.402Z,1.00
2023-03-24T10:13:28.062Z,0.70
2023-03-24T10:18:38.419Z,0.80
2023-03-24T10:23:47.492Z,0.70
2023-03-24T10:28:54.536Z,0.40
2023-03-24T10:33:58.066Z,0.40
2023-03-24T10:39:16.629Z,1.03
2023-03-24T10:44:25.190Z,0.30
2023-03-24T10:49:28.442Z,0.50
2023-03-24T10:54:32.741Z,0.40
2023-03-24T10:59:40.207Z,0.40
2023-03-24T11:04:49.758Z,0.30
2023-03-24T11:10:01.982Z,0.30
2023-03-24T11:15:21.314Z,0.30
2023-03-24T11:20:33.237Z,0.30
2023-03-24T11:25:40.084Z,0.40
2023-03-24T11:30:49.738Z,0.27
2023-03-24T11:36:03.183Z,0.37
2023-03-24T11:41:23.054Z,0.40
2023-03-24T11:46:27.743Z,0.30
2023-03-24T11:51:35.562Z,0.40
2023-03-24T11:56:43.820Z,0.50
2023-03-24T12:01:58.854Z,0.80
2023-03-24T12:07:32.092Z,0.43
2023-03-24T12:12:43.731Z,0.43
2023-03-24T12:17:58.217Z,0.60
2023-03-24T12:23:08.196Z,0.30
2023-03-24T12:28:28.518Z,0.50
2023-03-24T12:33:48.027Z,0.43
2023-03-24T12:39:01.249Z,0.90
2023-03-24T12:44:40.464Z,0.60
2023-03-24T12:50:08.868Z,0.40
2023-03-24T12:55:17.716Z,0.70
2023-03-24T13:00:25.963Z,0.50
2023-03-24T13:05:33.383Z,1.70
2023-03-24T13:10:40.539Z,0.50
2023-03-24T13:15:48.615Z,0.47
2023-03-24T13:20:57.020Z,0.70
2023-03-24T13:26:07.972Z,0.70
2023-03-24T13:31:13.189Z,0.50
2023-03-24T13:36:40.869Z,0.53
2023-03-24T13:41:51.057Z,0.50
2023-03-24T13:47:12.779Z,0.60
2023-03-24T13:52:29.132Z,0.70
2023-03-24T13:57:32.781Z,0.47
2023-03-24T14:02:47.084Z,0.30
2023-03-24T14:07:53.132Z,0.60
2023-03-24T14:13:02.960Z,0.80
2023-03-24T14:18:17.655Z,0.80
2023-03-24T14:23:31.669Z,0.87
2023-03-24T14:28:39.095Z,0.60
2023-03-24T14:34:05.895Z,0.67
2023-03-24T14:39:21.724Z,0.90
2023-03-24T14:44:57.282Z,1.40
2023-03-24T14:50:05.008Z,1.07
2023-03-24T14:55:16.479Z,0.73
2023-03-24T15:00:23.776Z,0.63
2023-03-24T15:05:31.139Z,0.90
2023-03-24T15:10:40.970Z,0.70
2023-03-24T15:15:48.734Z,0.87
2023-03-24T15:20:52.338Z,0.80
2023-03-24T15:25:58.575Z,0.83
2023-03-24T15:31:02.819Z,1.27
2023-03-24T15:36:16.603Z,0.53
2023-03-24T15:41:24.522Z,0.60
2023-03-24T15:46:29.797Z,0.80
2023-03-24T15:51:50.297Z,0.70
2023-03-24T15:57:20.376Z,0.63
2023-03-24T16:02:31.492Z,0.93
2023-03-24T16:07:37.633Z,0.73
2023-03-24T16:12:42.381Z,0.73
2023-03-24T16:17:45.886Z,0.70
2023-03-24T16:22:49.130Z,0.80
2023-03-24T16:27:53.770Z,0.70
2023-03-24T16:32:57.074Z,1.20
2023-03-24T16:38:00.415Z,0.80
2023-03-24T16:43:05.343Z,0.70
2023-03-24T16:48:08.747Z,0.93
2023-03-24T16:53:12.353Z,0.93
2023-03-24T16:58:18.243Z,0.70
2023-03-24T17:03:23.652Z,0.87
2023-03-24T17:08:27.049Z,1.23
2023-03-24T17:13:31.545Z,1.10
2023-03-24T17:18:34.838Z,0.80
2023-03-24T17:23:38.650Z,2.33
2023-03-24T17:28:43.326Z,1.00
2023-03-24T17:33:46.761Z,0.97
2023-03-24T17:38:49.908Z,1.30
2023-03-24T17:43:54.428Z,3.20
2023-03-24T17:48:57.613Z,2.70
2023-03-24T17:54:00.924Z,1.47
2023-03-24T17:59:05.975Z,1.37
2023-03-24T18:04:09.422Z,1.90
2023-03-24T18:09:12.598Z,1.50
2023-03-24T18:14:17.371Z,1.30
2023-03-24T18:19:21.043Z,1.53
2023-03-24T18:24:25.612Z,1.40
2023-03-24T18:29:30.459Z,2.23
2023-03-24T18:34:36.115Z,1.50
2023-03-24T18:39:40.684Z,14.20
2023-03-24T18:44:45.809Z,3.30
2023-03-24T18:49:48.958Z,8.53
2023-03-24T18:54:53.405Z,10.47
2023-03-24T19:00:01.215Z,10.37
2023-03-24T19:05:05.181Z,3.40
2023-03-24T19:10:09.094Z,7.50
2023-03-24T19:15:14.608Z,9.60
2023-03-24T19:20:17.941Z,8.43
2023-03-24T19:25:22.548Z,5.00
2023-03-24T19:30:27.513Z,3.67
2023-03-24T19:35:31.366Z,2.40
2023-03-24T19:40:34.976Z,2.07
2023-03-24T19:45:42.794Z,2.10
2023-03-24T19:50:46.706Z,8.20
2023-03-24T19:55:50.392Z,10.57
2023-03-24T20:00:55.245Z,6.20
2023-03-24T20:06:05.066Z,3.57
2023-03-24T20:11:09.466Z,3.70
2023-03-24T20:16:15.881Z,2.10
2023-03-24T20:21:22.834Z,1.33
2023-03-24T20:26:26.044Z,1.93
2023-03-24T20:31:30.670Z,2.73
2023-03-24T20:36:34.115Z,6.90
2023-03-24T20:41:37.306Z,2.30
2023-03-24T20:46:42.873Z,1.60
2023-03-24T20:51:48.527Z,1.60
2023-03-24T20:56:52.353Z,1.03
2023-03-24T21:01:58.422Z,1.07
2023-03-24T21:07:01.710Z,1.27
2023-03-24T21:12:06.616Z,1.70
2023-03-24T21:17:11.306Z,1.27
2023-03-24T21:22:15.925Z,1.07
2023-03-24T21:27:21.404Z,1.07
2023-03-24T21:32:26.550Z,0.93
2023-03-24T21:37:31.930Z,1.20
2023-03-24T21:42:35.147Z,1.17
2023-03-24T21:47:39.965Z,0.83
2023-03-24T21:52:46.976Z,1.33
2023-03-24T21:57:52.488Z,1.47
2023-03-24T22:02:58.315Z,0.93
2023-03-24T22:08:02.498Z,1.20
2023-03-24T22:13:05.780Z,0.80
2023-03-24T22:18:10.827Z,0.87
2023-03-24T22:23:14.334Z,0.60
2023-03-24T22:28:17.585Z,1.00
2023-03-24T22:33:22.448Z,0.60
2023-03-24T22:38:25.976Z,1.27
2023-03-24T22:43:30.404Z,1.00
2023-03-24T22:48:35.258Z,0.60
2023-03-24T22:53:38.346Z,1.20
2023-03-24T22:58:41.781Z,1.90
2023-03-24T23:03:46.510Z,1.80
2023-03-24T23:08:50.550Z,1.60
2023-03-24T23:13:54.133Z,0.90
2023-03-24T23:18:58.676Z,0.73
2023-03-24T23:24:01.883Z,0.80
2023-03-24T23:29:05.111Z,0.60
2023-03-24T23:34:11.987Z,0.63
2023-03-24T23:39:15.052Z,0.70
2023-03-24T23:44:19.804Z,0.60
2023-03-24T23:49:24.546Z,1.00
2023-03-24T23:54:27.665Z,0.67
2023-03-24T23:59:30.703Z,1.00
